createdAt,value
2023-07-25T00:01:24.364Z,94623.63
2023-07-25T00:04:26.555Z,94615.13
2023-07-25T00:07:28.265Z,94604.03
2023-07-25T00:10:34.017Z,94606.78
2023-07-25T00:13:36.233Z,94609.94
2023-07-25T00:16:38.055Z,94616.50
2023-07-25T00:19:39.813Z,94610.38
2023-07-25T00:22:41.992Z,94602.63
2023-07-25T00:25:46.116Z,94593.63
2023-07-25T00:28:49.018Z,94598.53
2023-07-25T00:31:51.066Z,94589.69
2023-07-25T00:34:53.306Z,94597.44
2023-07-25T00:37:55.022Z,94607.31
2023-07-25T00:40:58.923Z,94603.50
2023-07-25T00:44:00.944Z,94601.66
2023-07-25T00:47:03.059Z,94597.91
2023-07-25T00:50:05.760Z,94599.56
2023-07-25T00:53:08.093Z,94597.28
2023-07-25T00:56:13.450Z,94606.88
2023-07-25T00:59:15.233Z,94596.06
2023-07-25T01:02:20.704Z,94601.66
2023-07-25T01:05:23.851Z,94602.13
2023-07-25T01:08:25.611Z,94601.50
2023-07-25T01:11:29.844Z,94606.22
2023-07-25T01:14:32.268Z,94591.03
2023-07-25T01:17:34.390Z,94572.75
2023-07-25T01:20:37.113Z,94569.00
2023-07-25T01:23:39.437Z,94567.78
2023-07-25T01:26:45.039Z,94560.81
2023-07-25T01:29:46.853Z,94573.28
2023-07-25T01:32:49.086Z,94577.25
2023-07-25T01:35:51.339Z,94573.94
2023-07-25T01:38:53.288Z,94573.03
2023-07-25T01:41:56.546Z,94566.06
2023-07-25T01:44:58.796Z,94556.16
2023-07-25T01:48:00.628Z,94553.44
2023-07-25T01:51:02.730Z,94549.78
2023-07-25T01:54:04.919Z,94547.50
2023-07-25T01:57:08.904Z,94535.81
2023-07-25T02:00:12.367Z,94537.19
2023-07-25T02:03:14.479Z,94538.41
2023-07-25T02:06:17.579Z,94533.81
2023-07-25T02:09:19.605Z,94549.00
2023-07-25T02:12:23.469Z,94552.63
2023-07-25T02:15:25.456Z,94553.09
2023-07-25T02:18:27.261Z,94545.97
2023-07-25T02:21:29.485Z,94543.50
2023-07-25T02:24:31.732Z,94534.38
2023-07-25T02:27:35.183Z,94533.28
2023-07-25T02:30:40.062Z,94525.06
2023-07-25T02:33:41.977Z,94529.63
2023-07-25T02:36:43.999Z,94540.25
2023-07-25T02:39:46.093Z,94539.16
2023-07-25T02:42:49.494Z,94542.97
2023-07-25T02:45:51.629Z,94534.88
2023-07-25T02:48:53.769Z,94540.50
2023-07-25T02:51:55.837Z,94536.25
2023-07-25T02:54:57.687Z,94528.31
2023-07-25T02:58:01.795Z,94520.56
2023-07-25T03:01:03.595Z,94507.94
2023-07-25T03:04:08.328Z,94480.72
2023-07-25T03:07:10.150Z,94496.94
2023-07-25T03:10:13.061Z,94503.22
2023-07-25T03:13:16.391Z,94521.41
2023-07-25T03:16:18.667Z,94520.34
2023-07-25T03:19:20.466Z,94522.34
2023-07-25T03:22:22.278Z,94525.81
2023-07-25T03:25:24.158Z,94518.38
2023-07-25T03:28:27.285Z,94538.13
2023-07-25T03:31:29.197Z,94540.16
2023-07-25T03:34:31.207Z,94540.19
2023-07-25T03:37:33.326Z,94543.56
2023-07-25T03:40:35.301Z,94548.56
2023-07-25T03:43:39.718Z,94557.84
2023-07-25T03:46:41.774Z,94570.75
2023-07-25T03:49:43.806Z,94566.06
2023-07-25T03:52:45.858Z,94579.72
2023-07-25T03:55:48.100Z,94588.81
2023-07-25T03:58:51.551Z,94600.47
2023-07-25T04:01:53.301Z,94575.56
2023-07-25T04:04:55.603Z,94569.34
2023-07-25T04:07:57.846Z,94573.44
2023-07-25T04:10:59.738Z,94574.19
2023-07-25T04:14:03.105Z,94571.31
2023-07-25T04:17:05.638Z,94563.88
2023-07-25T04:20:09.213Z,94544.78
2023-07-25T04:23:11.624Z,94547.81
2023-07-25T04:26:13.572Z,94531.88
2023-07-25T04:29:17.063Z,94546.44
2023-07-25T04:32:19.041Z,94558.28
2023-07-25T04:35:21.069Z,94565.72
2023-07-25T04:38:22.806Z,94575.75
2023-07-25T04:41:25.852Z,94595.50
2023-07-25T04:44:29.224Z,94601.88
2023-07-25T04:47:31.305Z,94606.91
2023-07-25T04:50:33.324Z,94608.88
2023-07-25T04:53:35.436Z,94616.50
2023-07-25T04:56:37.645Z,94619.06
2023-07-25T04:59:43.144Z,94621.66
2023-07-25T05:02:45.136Z,94620.88
2023-07-25T05:05:47.708Z,94601.75
2023-07-25T05:08:49.433Z,94594.91
2023-07-25T05:11:51.480Z,94602.66
2023-07-25T05:14:54.841Z,94597.47
2023-07-25T05:17:56.772Z,94600.66
2023-07-25T05:20:59.810Z,94603.41
2023-07-25T05:24:01.765Z,94579.69
2023-07-25T05:27:03.833Z,94538.19
2023-07-25T05:30:08.156Z,94521.31
2023-07-25T05:33:10.198Z,94470.44
2023-07-25T05:36:12.446Z,94450.13
2023-07-25T05:39:14.199Z,94453.16
2023-07-25T05:42:15.894Z,94497.53
2023-07-25T05:45:20.752Z,94465.44
2023-07-25T05:48:25.089Z,94401.19
2023-07-25T05:51:27.101Z,94397.06
2023-07-25T05:54:29.068Z,94393.88
2023-07-25T05:57:31.091Z,94405.41
2023-07-25T06:00:35.250Z,94394.78
2023-07-25T06:03:37.065Z,94423.19
2023-07-25T06:06:40.221Z,94424.31
2023-07-25T06:09:42.005Z,94419.91
2023-07-25T06:12:44.074Z,94435.72
2023-07-25T06:15:47.296Z,94437.25
2023-07-25T06:18:50.362Z,94419.47
2023-07-25T06:21:52.431Z,94408.22
2023-07-25T06:24:54.592Z,94416.56
2023-07-25T06:27:56.716Z,94450.13
2023-07-25T06:31:00.057Z,94446.59
2023-07-25T06:34:01.969Z,94464.22
2023-07-25T06:37:03.946Z,94461.91
2023-07-25T06:40:07.269Z,94438.97
2023-07-25T06:43:09.236Z,94406.72
2023-07-25T06:46:16.594Z,94397.47
2023-07-25T06:49:18.626Z,94400.50
2023-07-25T06:52:20.387Z,94418.25
2023-07-25T06:55:22.572Z,94418.06
2023-07-25T06:58:24.534Z,94410.59
2023-07-25T07:01:29.486Z,94414.06
2023-07-25T07:04:31.659Z,94387.44
2023-07-25T07:07:34.643Z,94360.41
2023-07-25T07:10:39.369Z,94355.97
2023-07-25T07:13:41.142Z,94340.13
2023-07-25T07:16:44.345Z,94331.78
2023-07-25T07:19:46.287Z,94326.13
2023-07-25T07:22:48.294Z,94330.34
2023-07-25T07:25:51.443Z,94327.31
2023-07-25T07:28:53.258Z,94330.34
2023-07-25T07:31:56.472Z,94314.06
2023-07-25T07:34:59.239Z,94319.06
2023-07-25T07:38:01.021Z,94346.25
2023-07-25T07:41:02.753Z,94376.63
2023-07-25T07:44:04.954Z,94385.16
2023-07-25T07:47:08.167Z,94388.31
2023-07-25T07:50:10.535Z,94378.25
2023-07-25T07:53:12.444Z,94366.22
2023-07-25T07:56:14.455Z,94354.16
2023-07-25T07:59:16.429Z,94347.28
2023-07-25T08:02:20.944Z,94353.16
2023-07-25T08:05:22.995Z,94353.75
2023-07-25T08:08:25.068Z,94325.16
2023-07-25T08:11:26.953Z,94340.06
2023-07-25T08:14:28.932Z,94338.66
2023-07-25T08:17:32.306Z,94351.53
2023-07-25T08:20:34.536Z,94346.19
2023-07-25T08:23:36.297Z,94336.84
2023-07-25T08:26:38.058Z,94338.56
2023-07-25T08:29:40.494Z,94339.38
2023-07-25T08:32:43.693Z,94364.31
2023-07-25T08:35:47.457Z,94373.38
2023-07-25T08:38:49.200Z,94385.22
2023-07-25T08:41:53.451Z,94373.63
2023-07-25T08:44:56.682Z,94391.84
2023-07-25T08:48:05.568Z,94408.19
2023-07-25T08:51:08.632Z,94401.78
2023-07-25T08:54:17.937Z,94391.16
2023-07-25T08:57:22.357Z,94384.06
2023-07-25T09:00:26.244Z,94389.00
2023-07-25T09:03:30.819Z,94392.03
2023-07-25T09:06:32.724Z,94398.56
2023-07-25T09:09:34.625Z,94404.63
2023-07-25T09:12:36.444Z,94395.28
2023-07-25T09:15:38.316Z,94409.28
2023-07-25T09:18:41.505Z,94405.41
2023-07-25T09:21:48.277Z,94404.75
2023-07-25T09:24:50.318Z,94401.16
2023-07-25T09:27:55.011Z,94397.94
2023-07-25T09:30:57.220Z,94411.94
2023-07-25T09:34:00.665Z,94411.38
2023-07-25T09:37:03.438Z,94411.38
2023-07-25T09:40:09.024Z,94416.94
2023-07-25T09:43:21.773Z,94416.81
2023-07-25T09:46:23.541Z,94411.78
2023-07-25T09:49:26.672Z,94412.19
2023-07-25T09:52:28.842Z,94411.72
2023-07-25T09:55:30.744Z,94410.75
2023-07-25T09:58:33.093Z,94415.13
2023-07-25T10:01:39.176Z,94420.88
2023-07-25T10:04:42.977Z,94419.38
2023-07-25T10:07:46.701Z,94420.28
2023-07-25T10:10:49.414Z,94421.63
2023-07-25T10:13:51.868Z,94423.44
2023-07-25T10:16:53.889Z,94421.56
2023-07-25T10:19:57.034Z,94436.91
2023-07-25T10:23:07.828Z,94441.16
2023-07-25T10:26:10.754Z,94441.63
2023-07-25T10:29:38.055Z,94438.78
2023-07-25T10:32:47.454Z,94435.75
2023-07-25T10:35:52.678Z,94444.38
2023-07-25T10:39:07.011Z,94448.50
2023-07-25T10:42:15.696Z,94451.06
2023-07-25T10:45:22.107Z,94444.81
2023-07-25T10:48:31.931Z,94449.94
2023-07-25T10:51:51.857Z,94447.19
2023-07-25T10:55:04.046Z,94450.91
2023-07-25T10:58:09.770Z,94460.81
2023-07-25T11:01:33.125Z,94450.22
2023-07-25T11:04:35.613Z,94445.03
2023-07-25T11:07:41.886Z,94440.22
2023-07-25T11:10:43.886Z,94443.72
2023-07-25T11:13:47.040Z,94432.38
2023-07-25T11:16:52.296Z,94427.66
2023-07-25T11:19:54.243Z,94418.00
2023-07-25T11:23:00.001Z,94413.75
2023-07-25T11:26:03.708Z,94416.91
2023-07-25T11:29:06.443Z,94409.13
2023-07-25T11:32:09.788Z,94421.13
2023-07-25T11:35:11.925Z,94438.31
2023-07-25T11:38:15.119Z,94415.00
2023-07-25T11:41:17.389Z,94415.19
2023-07-25T11:44:20.532Z,94411.97
2023-07-25T11:47:22.821Z,94395.91
2023-07-25T11:50:31.045Z,94383.09
2023-07-25T11:53:35.888Z,94379.03
2023-07-25T11:56:41.136Z,94380.03
2023-07-25T11:59:43.431Z,94375.53
2023-07-25T12:02:45.278Z,94380.28
2023-07-25T12:05:53.144Z,94383.53
2023-07-25T12:08:56.630Z,94380.72
2023-07-25T12:11:58.729Z,94376.34
2023-07-25T12:15:02.623Z,94366.81
2023-07-25T12:18:04.837Z,94367.66
2023-07-25T12:21:07.072Z,94364.94
2023-07-25T12:24:11.539Z,94411.19
2023-07-25T12:27:17.290Z,94404.97
2023-07-25T12:30:19.174Z,94399.97
2023-07-25T12:33:21.706Z,94394.41
2023-07-25T12:36:23.799Z,94403.19
2023-07-25T12:39:27.180Z,94408.25
2023-07-25T12:42:29.011Z,94414.25
2023-07-25T12:45:31.194Z,94409.91
2023-07-25T12:48:33.263Z,94409.25
2023-07-25T12:51:35.246Z,94404.53
2023-07-25T12:54:38.888Z,94408.84
2023-07-25T12:57:40.830Z,94415.38
2023-07-25T13:00:43.929Z,94419.41
2023-07-25T13:03:46.270Z,94421.50
2023-07-25T13:06:50.705Z,94416.69
2023-07-25T13:09:54.061Z,94406.75
2023-07-25T13:12:55.967Z,94410.34
2023-07-25T13:15:57.845Z,94409.91
2023-07-25T13:18:59.891Z,94413.03
2023-07-25T13:22:02.100Z,94402.59
2023-07-25T13:25:06.297Z,94402.06
2023-07-25T13:28:08.573Z,94409.13
2023-07-25T13:31:10.392Z,94411.16
2023-07-25T13:34:12.513Z,94410.66
2023-07-25T13:37:14.878Z,94402.56
2023-07-25T13:40:18.183Z,94410.19
2023-07-25T13:43:20.205Z,94406.97
2023-07-25T13:46:22.326Z,94406.97
2023-07-25T13:49:24.149Z,94404.97
2023-07-25T13:52:26.054Z,94399.06
2023-07-25T13:55:29.309Z,94403.94
2023-07-25T13:58:31.510Z,94404.81
2023-07-25T14:01:33.748Z,94401.91
2023-07-25T14:04:37.966Z,94393.97
2023-07-25T14:07:41.356Z,94401.53
2023-07-25T14:10:46.831Z,94398.38
2023-07-25T14:13:49.811Z,94394.13
2023-07-25T14:16:53.106Z,94398.88
2023-07-25T14:19:56.563Z,94383.41
2023-07-25T14:22:59.450Z,94396.81
2023-07-25T14:26:04.799Z,94399.09
2023-07-25T14:29:07.881Z,94391.84
2023-07-25T14:32:11.071Z,94390.75
2023-07-25T14:35:13.917Z,94391.78
2023-07-25T14:38:18.307Z,94393.94
2023-07-25T14:41:22.806Z,94397.38
2023-07-25T14:44:25.413Z,94407.50
2023-07-25T14:47:27.757Z,94398.81
2023-07-25T14:50:30.055Z,94402.78
2023-07-25T14:53:32.210Z,94397.50
2023-07-25T14:56:35.825Z,94408.38
2023-07-25T14:59:38.886Z,94404.88
2023-07-25T15:02:42.768Z,94403.41
2023-07-25T15:05:44.729Z,94396.53
2023-07-25T15:08:46.819Z,94389.22
2023-07-25T15:11:50.427Z,94386.19
2023-07-25T15:14:52.757Z,94388.31
2023-07-25T15:17:55.482Z,94403.56
2023-07-25T15:20:58.376Z,94400.78
2023-07-25T15:24:01.288Z,94390.28
2023-07-25T15:27:06.646Z,94386.03
2023-07-25T15:30:11.652Z,94379.22
2023-07-25T15:33:15.151Z,94385.91
2023-07-25T15:36:19.628Z,94386.03
2023-07-25T15:39:23.419Z,94384.88
2023-07-25T15:42:28.156Z,94386.41
2023-07-25T15:45:31.891Z,94386.28
2023-07-25T15:48:35.676Z,94393.16
2023-07-25T15:51:40.262Z,94383.47
2023-07-25T15:54:43.803Z,94388.59
2023-07-25T15:57:48.628Z,94380.84
2023-07-25T16:00:52.512Z,94381.19
2023-07-25T16:03:55.723Z,94376.97
2023-07-25T16:06:59.158Z,94393.34
2023-07-25T16:10:03.449Z,94376.19
2023-07-25T16:13:08.145Z,94375.16
2023-07-25T16:16:11.578Z,94369.78
2023-07-25T16:19:15.300Z,94363.16
2023-07-25T16:22:18.783Z,94364.00
2023-07-25T16:25:23.754Z,94372.69
2023-07-25T16:28:29.007Z,94380.72
2023-07-25T16:31:34.103Z,94376.09
2023-07-25T16:34:38.543Z,94374.25
2023-07-25T16:37:43.422Z,94362.41
2023-07-25T16:40:47.485Z,94353.22
2023-07-25T16:43:52.947Z,94369.88
2023-07-25T16:46:56.787Z,94359.25
2023-07-25T16:50:00.209Z,94352.06
2023-07-25T16:53:07.095Z,94350.88
2023-07-25T16:56:12.195Z,94352.81
2023-07-25T16:59:18.866Z,94364.16
2023-07-25T17:02:23.581Z,94369.75
2023-07-25T17:05:27.305Z,94368.72
2023-07-25T17:08:31.190Z,94368.91
2023-07-25T17:11:36.379Z,94368.44
2023-07-25T17:14:42.029Z,94369.66
2023-07-25T17:17:46.175Z,94377.81
2023-07-25T17:20:49.933Z,94377.72
2023-07-25T17:23:54.812Z,94377.44
2023-07-25T17:26:59.163Z,94379.94
2023-07-25T17:30:04.701Z,94363.88
2023-07-25T17:33:08.993Z,94378.63
2023-07-25T17:36:13.000Z,94396.22
2023-07-25T17:39:17.297Z,94389.50
2023-07-25T17:42:21.513Z,94394.09
2023-07-25T17:45:28.800Z,94406.31
2023-07-25T17:48:32.356Z,94411.88
2023-07-25T17:51:37.864Z,94428.38
2023-07-25T17:54:42.058Z,94443.91
2023-07-25T17:57:46.969Z,94462.59
2023-07-25T18:00:52.395Z,94453.56
2023-07-25T18:03:56.679Z,94464.84
2023-07-25T18:07:01.108Z,94466.69
2023-07-25T18:10:05.193Z,94482.47
2023-07-25T18:13:08.926Z,94479.69
2023-07-25T18:16:15.003Z,94509.41
2023-07-25T18:19:18.556Z,94521.03
2023-07-25T18:22:25.120Z,94535.78
2023-07-25T18:25:28.832Z,94539.25
2023-07-25T18:28:32.961Z,94549.78
2023-07-25T18:31:38.960Z,94557.06
2023-07-25T18:34:42.623Z,94553.47
2023-07-25T18:37:48.364Z,94546.84
2023-07-25T18:40:52.878Z,94549.75
2023-07-25T18:43:56.323Z,94545.31
2023-07-25T18:47:02.796Z,94519.16
2023-07-25T18:50:08.438Z,94537.63
2023-07-25T18:53:12.111Z,94537.22
2023-07-25T18:56:19.052Z,94511.47
2023-07-25T18:59:23.539Z,94526.63
2023-07-25T19:02:40.152Z,94540.78
2023-07-25T19:05:45.231Z,94541.41
2023-07-25T19:08:50.083Z,94535.28
2023-07-25T19:11:57.423Z,94537.53
2023-07-25T19:15:01.746Z,94554.84
2023-07-25T19:18:09.315Z,94543.78
2023-07-25T19:21:13.178Z,94543.25
2023-07-25T19:24:19.076Z,94548.59
2023-07-25T19:27:24.420Z,94555.06
2023-07-25T19:30:28.419Z,94545.63
2023-07-25T19:33:41.780Z,94560.16
2023-07-25T19:36:47.416Z,94572.09
2023-07-25T19:39:52.349Z,94576.03
2023-07-25T19:42:56.125Z,94574.94
2023-07-25T19:46:06.318Z,94582.00
2023-07-25T19:49:15.860Z,94586.69
2023-07-25T19:52:19.853Z,94597.03
2023-07-25T19:55:24.172Z,94594.88
2023-07-25T19:58:28.137Z,94594.44
2023-07-25T20:01:32.292Z,94605.59
2023-07-25T20:04:38.180Z,94594.69
2023-07-25T20:07:44.232Z,94610.34
2023-07-25T20:10:48.033Z,94609.47
2023-07-25T20:13:52.559Z,94621.84
2023-07-25T20:16:56.514Z,94618.88
2023-07-25T20:20:01.971Z,94625.25
2023-07-25T20:23:06.516Z,94621.19
2023-07-25T20:26:10.943Z,94611.16
2023-07-25T20:29:15.484Z,94608.50
2023-07-25T20:32:20.235Z,94607.38
2023-07-25T20:35:25.839Z,94599.50
2023-07-25T20:38:29.961Z,94610.47
2023-07-25T20:41:34.100Z,94614.72
2023-07-25T20:44:39.119Z,94619.34
2023-07-25T20:47:43.225Z,94617.25
2023-07-25T20:50:50.046Z,94632.28
2023-07-25T20:53:54.327Z,94628.88
2023-07-25T20:56:58.120Z,94625.19
2023-07-25T21:00:02.137Z,94637.53
2023-07-25T21:03:04.323Z,94639.22
2023-07-25T21:06:07.570Z,94623.75
2023-07-25T21:09:09.408Z,94620.69
2023-07-25T21:12:13.379Z,94628.88
2023-07-25T21:15:15.945Z,94624.88
2023-07-25T21:18:17.739Z,94626.84
2023-07-25T21:21:22.411Z,94622.09
2023-07-25T21:24:24.624Z,94621.59
2023-07-25T21:27:26.345Z,94627.88
2023-07-25T21:30:28.448Z,94629.13
2023-07-25T21:33:30.570Z,94639.22
2023-07-25T21:36:34.098Z,94645.00
2023-07-25T21:39:36.087Z,94651.31
2023-07-25T21:42:38.024Z,94656.84
2023-07-25T21:45:41.254Z,94652.66
2023-07-25T21:48:43.051Z,94657.91
2023-07-25T21:51:46.233Z,94668.81
2023-07-25T21:54:48.082Z,94664.38
2023-07-25T21:57:50.121Z,94668.50
2023-07-25T22:00:52.417Z,94676.75
2023-07-25T22:03:55.131Z,94676.25
2023-07-25T22:06:58.299Z,94672.53
2023-07-25T22:10:00.064Z,94681.13
2023-07-25T22:13:02.389Z,94683.72
2023-07-25T22:16:04.588Z,94676.41
2023-07-25T22:19:06.824Z,94678.47
2023-07-25T22:22:10.109Z,94675.50
2023-07-25T22:25:12.090Z,94682.22
2023-07-25T22:28:14.176Z,94677.47
2023-07-25T22:31:16.161Z,94681.47
2023-07-25T22:34:18.050Z,94674.78
2023-07-25T22:37:21.616Z,94661.22
2023-07-25T22:40:23.427Z,94665.50
2023-07-25T22:43:25.768Z,94664.56
2023-07-25T22:46:27.829Z,94676.19
2023-07-25T22:49:30.159Z,94653.75
2023-07-25T22:52:33.515Z,94653.44
2023-07-25T22:55:35.446Z,94651.34
2023-07-25T22:58:37.232Z,94645.06
2023-07-25T23:01:39.061Z,94631.75
2023-07-25T23:04:40.887Z,94642.63
2023-07-25T23:07:44.830Z,94634.88
2023-07-25T23:10:53.740Z,94631.44
2023-07-25T23:13:56.164Z,94630.13
2023-07-25T23:16:57.999Z,94622.72
2023-07-25T23:19:59.981Z,94624.16
2023-07-25T23:23:03.589Z,94621.22
2023-07-25T23:26:06.669Z,94616.22
2023-07-25T23:29:08.447Z,94630.69
2023-07-25T23:32:10.573Z,94635.78
2023-07-25T23:35:12.754Z,94632.38
2023-07-25T23:38:16.501Z,94631.09
2023-07-25T23:41:18.408Z,94629.00
2023-07-25T23:44:20.488Z,94631.91
2023-07-25T23:47:22.306Z,94632.84
2023-07-25T23:50:24.225Z,94643.31
2023-07-25T23:53:27.973Z,94656.78
2023-07-25T23:56:30.621Z,94651.53
2023-07-25T23:59:32.747Z,94656.25
